sensor_id;sensor_type;location;lat;lon;timestamp;P1;durP1;ratioP1;P2;durP2;ratioP2
84766;SDS011;74995;49.824;10.994;2024-01-15T00:02:05;15.32;;;7.40;;
84766;SDS011;74995;49.824;10.994;2024-01-15T00:04:35;13.80;;;6.28;;
84766;SDS011;74995;49.824;10.994;2024-01-15T00:07:01;13.93;;;6.85;;
84766;SDS011;74995;49.824;10.994;2024-01-15T00:09:27;14.98;;;6.38;;
84766;SDS011;74995;49.824;10.994;2024-01-15T00:11:52;16.10;;;7.82;;
84766;SDS011;74995;49.824;10.994;2024-01-15T00:14:18;18.92;;;8.18;;
84766;SDS011;74995;49.824;10.994;2024-01-15T00:16:45;13.38;;;7.57;;
84766;SDS011;74995;49.824;10.994;2024-01-15T00:19:10;13.77;;;6.95;;
84766;SDS011;74995;49.824;10.994;2024-01-15T00:21:35;12.77;;;6.90;;
84766;SDS011;74995;49.824;10.994;2024-01-15T00:24:01;14.70;;;6.80;;
84766;SDS011;74995;49.824;10.994;2024-01-15T00:26:26;15.20;;;6.60;;
84766;SDS011;74995;49.824;10.994;2024-01-15T00:28:52;14.73;;;6.85;;
84766;SDS011;74995;49.824;10.994;2024-01-15T00:31:17;17.15;;;7.30;;
84766;SDS011;74995;49.824;10.994;2024-01-15T00:33:43;16.60;;;7.85;;
84766;SDS011;74995;49.824;10.994;2024-01-15T00:36:08;14.23;;;6.38;;
84766;SDS011;74995;49.824;10.994;2024-01-15T00:38:33;16.20;;;6.30;;
84766;SDS011;74995;49.824;10.994;2024-01-15T00:40:59;15.05;;;7.25;;
84766;SDS011;74995;49.824;10.994;2024-01-15T00:43:24;14.57;;;6.80;;
84766;SDS011;74995;49.824;10.994;2024-01-15T00:45:49;15.05;;;6.38;;
84766;SDS011;74995;49.824;10.994;2024-01-15T00:48:14;14.95;;;6.82;;
84766;SDS011;74995;49.824;10.994;2024-01-15T00:50:40;15.95;;;6.30;;
84766;SDS011;74995;49.824;10.994;2024-01-15T00:53:05;14.43;;;7.50;;
84766;SDS011;74995;49.824;10.994;2024-01-15T00:55:30;14.02;;;6.78;;
84766;SDS011;74995;49.824;10.994;2024-01-15T00:57:56;15.40;;;6.10;;
84766;SDS011;74995;49.824;10.994;2024-01-15T01:00:21;13.27;;;7.15;;
84766;SDS011;74995;49.824;10.994;2024-01-15T01:02:46;14.88;;;6.57;;
84766;SDS011;74995;49.824;10.994;2024-01-15T01:05:12;17.15;;;6.97;;
84766;SDS011;74995;49.824;10.994;2024-01-15T01:07:37;13.70;;;6.55;;
84766;SDS011;74995;49.824;10.994;2024-01-15T01:10:03;16.38;;;7.15;;
84766;SDS011;74995;49.824;10.994;2024-01-15T01:12:29;15.50;;;6.45;;
84766;SDS011;74995;49.824;10.994;2024-01-15T01:14:54;15.93;;;6.60;;
84766;SDS011;74995;49.824;10.994;2024-01-15T01:17:20;14.23;;;6.25;;
84766;SDS011;74995;49.824;10.994;2024-01-15T01:19:45;16.00;;;7.35;;
84766;SDS011;74995;49.824;10.994;2024-01-15T01:22:10;14.45;;;7.53;;
84766;SDS011;74995;49.824;10.994;2024-01-15T01:24:36;16.40;;;6.32;;
84766;SDS011;74995;49.824;10.994;2024-01-15T01:27:01;14.50;;;6.57;;
84766;SDS011;74995;49.824;10.994;2024-01-15T01:29:26;14.82;;;6.10;;
84766;SDS011;74995;49.824;10.994;2024-01-15T01:31:52;13.52;;;6.68;;
84766;SDS011;74995;49.824;10.994;2024-01-15T01:34:17;14.95;;;6.72;;
84766;SDS011;74995;49.824;10.994;2024-01-15T01:36:42;13.73;;;5.88;;
84766;SDS011;74995;49.824;10.994;2024-01-15T01:39:08;14.27;;;7.00;;
84766;SDS011;74995;49.824;10.994;2024-01-15T01:41:34;16.73;;;6.85;;
84766;SDS011;74995;49.824;10.994;2024-01-15T01:43:59;13.90;;;6.28;;
84766;SDS011;74995;49.824;10.994;2024-01-15T01:46:25;15.48;;;7.15;;
84766;SDS011;74995;49.824;10.994;2024-01-15T01:48:52;14.80;;;5.97;;
84766;SDS011;74995;49.824;10.994;2024-01-15T01:51:19;15.43;;;6.88;;
84766;SDS011;74995;49.824;10.994;2024-01-15T01:53:46;13.55;;;6.75;;
84766;SDS011;74995;49.824;10.994;2024-01-15T01:56:11;13.73;;;6.03;;
84766;SDS011;74995;49.824;10.994;2024-01-15T01:58:38;15.73;;;6.28;;
84766;SDS011;74995;49.824;10.994;2024-01-15T02:01:04;12.27;;;6.18;;
84766;SDS011;74995;49.824;10.994;2024-01-15T02:03:30;14.73;;;6.93;;
84766;SDS011;74995;49.824;10.994;2024-01-15T02:05:56;14.48;;;6.55;;
84766;SDS011;74995;49.824;10.994;2024-01-15T02:08:21;15.68;;;7.22;;
84766;SDS011;74995;49.824;10.994;2024-01-15T02:10:47;12.35;;;5.70;;
84766;SDS011;74995;49.824;10.994;2024-01-15T02:13:12;13.27;;;5.75;;
84766;SDS011;74995;49.824;10.994;2024-01-15T02:15:38;14.02;;;6.30;;
84766;SDS011;74995;49.824;10.994;2024-01-15T02:18:04;17.38;;;6.88;;
84766;SDS011;74995;49.824;10.994;2024-01-15T02:20:31;12.02;;;5.60;;
84766;SDS011;74995;49.824;10.994;2024-01-15T02:23:03;16.23;;;7.97;;
84766;SDS011;74995;49.824;10.994;2024-01-15T02:25:32;13.35;;;5.88;;
84766;SDS011;74995;49.824;10.994;2024-01-15T02:27:57;15.30;;;6.68;;
84766;SDS011;74995;49.824;10.994;2024-01-15T02:30:23;13.10;;;5.90;;
84766;SDS011;74995;49.824;10.994;2024-01-15T02:32:50;12.32;;;5.95;;
84766;SDS011;74995;49.824;10.994;2024-01-15T02:35:15;11.63;;;5.32;;
84766;SDS011;74995;49.824;10.994;2024-01-15T02:37:41;15.50;;;6.53;;
84766;SDS011;74995;49.824;10.994;2024-01-15T02:40:06;13.65;;;6.20;;
84766;SDS011;74995;49.824;10.994;2024-01-15T02:42:32;13.60;;;5.43;;
84766;SDS011;74995;49.824;10.994;2024-01-15T02:44:57;15.18;;;6.28;;
84766;SDS011;74995;49.824;10.994;2024-01-15T02:47:23;12.73;;;5.80;;
84766;SDS011;74995;49.824;10.994;2024-01-15T02:49:48;13.13;;;6.28;;
84766;SDS011;74995;49.824;10.994;2024-01-15T02:52:13;14.57;;;6.45;;
84766;SDS011;74995;49.824;10.994;2024-01-15T02:54:39;13.85;;;6.63;;
84766;SDS011;74995;49.824;10.994;2024-01-15T02:57:04;13.90;;;6.20;;
84766;SDS011;74995;49.824;10.994;2024-01-15T02:59:29;13.18;;;5.82;;
84766;SDS011;74995;49.824;10.994;2024-01-15T03:01:55;12.32;;;5.75;;
84766;SDS011;74995;49.824;10.994;2024-01-15T03:04:20;8.68;;;5.13;;
84766;SDS011;74995;49.824;10.994;2024-01-15T03:06:45;12.75;;;5.60;;
84766;SDS011;74995;49.824;10.994;2024-01-15T03:09:11;11.95;;;5.28;;
84766;SDS011;74995;49.824;10.994;2024-01-15T03:11:39;10.15;;;5.75;;
84766;SDS011;74995;49.824;10.994;2024-01-15T03:14:05;14.60;;;5.60;;
84766;SDS011;74995;49.824;10.994;2024-01-15T03:16:31;11.38;;;5.93;;
84766;SDS011;74995;49.824;10.994;2024-01-15T03:18:56;12.15;;;4.95;;
84766;SDS011;74995;49.824;10.994;2024-01-15T03:21:21;11.40;;;4.72;;
84766;SDS011;74995;49.824;10.994;2024-01-15T03:23:47;12.93;;;5.90;;
84766;SDS011;74995;49.824;10.994;2024-01-15T03:26:12;10.18;;;4.68;;
84766;SDS011;74995;49.824;10.994;2024-01-15T03:28:37;11.80;;;5.13;;
84766;SDS011;74995;49.824;10.994;2024-01-15T03:31:03;10.13;;;4.78;;
84766;SDS011;74995;49.824;10.994;2024-01-15T03:33:28;11.00;;;5.32;;
84766;SDS011;74995;49.824;10.994;2024-01-15T03:35:53;10.18;;;4.50;;
84766;SDS011;74995;49.824;10.994;2024-01-15T03:38:19;10.93;;;5.28;;
84766;SDS011;74995;49.824;10.994;2024-01-15T03:40:44;12.50;;;6.05;;
84766;SDS011;74995;49.824;10.994;2024-01-15T03:43:09;13.77;;;5.22;;
84766;SDS011;74995;49.824;10.994;2024-01-15T03:45:35;11.10;;;5.22;;
84766;SDS011;74995;49.824;10.994;2024-01-15T03:48:00;11.00;;;5.15;;
84766;SDS011;74995;49.824;10.994;2024-01-15T03:50:25;11.15;;;5.00;;
84766;SDS011;74995;49.824;10.994;2024-01-15T03:52:50;11.32;;;4.95;;
84766;SDS011;74995;49.824;10.994;2024-01-15T03:55:16;9.48;;;4.45;;
84766;SDS011;74995;49.824;10.994;2024-01-15T03:57:41;10.55;;;4.95;;
84766;SDS011;74995;49.824;10.994;2024-01-15T04:00:07;9.43;;;4.30;;
84766;SDS011;74995;49.824;10.994;2024-01-15T04:02:32;12.27;;;5.28;;
84766;SDS011;74995;49.824;10.994;2024-01-15T04:04:58;11.43;;;4.90;;
84766;SDS011;74995;49.824;10.994;2024-01-15T04:07:23;12.95;;;5.07;;
84766;SDS011;74995;49.824;10.994;2024-01-15T04:09:48;11.88;;;4.88;;
84766;SDS011;74995;49.824;10.994;2024-01-15T04:12:13;10.90;;;5.22;;
84766;SDS011;74995;49.824;10.994;2024-01-15T04:14:39;9.85;;;4.78;;
84766;SDS011;74995;49.824;10.994;2024-01-15T04:17:04;9.75;;;4.85;;
84766;SDS011;74995;49.824;10.994;2024-01-15T04:19:29;9.02;;;4.38;;
84766;SDS011;74995;49.824;10.994;2024-01-15T04:21:55;9.70;;;5.15;;
84766;SDS011;74995;49.824;10.994;2024-01-15T04:24:20;11.45;;;5.28;;
84766;SDS011;74995;49.824;10.994;2024-01-15T04:26:45;11.00;;;4.85;;
84766;SDS011;74995;49.824;10.994;2024-01-15T04:29:11;11.48;;;5.28;;
84766;SDS011;74995;49.824;10.994;2024-01-15T04:31:37;10.15;;;4.38;;
84766;SDS011;74995;49.824;10.994;2024-01-15T04:34:02;9.52;;;4.13;;
84766;SDS011;74995;49.824;10.994;2024-01-15T04:36:27;7.80;;;4.47;;
84766;SDS011;74995;49.824;10.994;2024-01-15T04:38:53;9.57;;;4.65;;
84766;SDS011;74995;49.824;10.994;2024-01-15T04:41:18;9.07;;;4.45;;
84766;SDS011;74995;49.824;10.994;2024-01-15T04:43:43;8.75;;;4.15;;
84766;SDS011;74995;49.824;10.994;2024-01-15T04:46:09;11.10;;;4.65;;
84766;SDS011;74995;49.824;10.994;2024-01-15T04:48:34;10.20;;;4.82;;
84766;SDS011;74995;49.824;10.994;2024-01-15T04:51:00;8.88;;;3.97;;
84766;SDS011;74995;49.824;10.994;2024-01-15T04:53:25;9.25;;;4.15;;
84766;SDS011;74995;49.824;10.994;2024-01-15T04:55:50;10.07;;;4.53;;
84766;SDS011;74995;49.824;10.994;2024-01-15T04:58:16;10.50;;;5.57;;
84766;SDS011;74995;49.824;10.994;2024-01-15T05:00:41;10.13;;;5.65;;
84766;SDS011;74995;49.824;10.994;2024-01-15T05:03:06;9.48;;;4.38;;
84766;SDS011;74995;49.824;10.994;2024-01-15T05:05:32;13.35;;;5.60;;
84766;SDS011;74995;49.824;10.994;2024-01-15T05:07:57;8.30;;;4.25;;
84766;SDS011;74995;49.824;10.994;2024-01-15T05:10:22;9.02;;;4.00;;
84766;SDS011;74995;49.824;10.994;2024-01-15T05:12:48;8.95;;;4.60;;
84766;SDS011;74995;49.824;10.994;2024-01-15T05:15:13;9.80;;;4.28;;
84766;SDS011;74995;49.824;10.994;2024-01-15T05:17:38;9.68;;;4.03;;
84766;SDS011;74995;49.824;10.994;2024-01-15T05:20:04;9.48;;;4.65;;
84766;SDS011;74995;49.824;10.994;2024-01-15T05:22:30;7.82;;;3.58;;
84766;SDS011;74995;49.824;10.994;2024-01-15T05:24:55;9.40;;;4.50;;
84766;SDS011;74995;49.824;10.994;2024-01-15T05:27:20;6.80;;;4.30;;
84766;SDS011;74995;49.824;10.994;2024-01-15T05:29:45;9.25;;;4.28;;
84766;SDS011;74995;49.824;10.994;2024-01-15T05:32:11;8.48;;;4.35;;
84766;SDS011;74995;49.824;10.994;2024-01-15T05:34:36;8.77;;;4.35;;
84766;SDS011;74995;49.824;10.994;2024-01-15T05:37:01;8.63;;;4.55;;
84766;SDS011;74995;49.824;10.994;2024-01-15T05:39:27;7.70;;;4.20;;
84766;SDS011;74995;49.824;10.994;2024-01-15T05:41:52;8.85;;;4.90;;
84766;SDS011;74995;49.824;10.994;2024-01-15T05:44:17;9.77;;;4.20;;
84766;SDS011;74995;49.824;10.994;2024-01-15T05:46:43;9.70;;;4.68;;
84766;SDS011;74995;49.824;10.994;2024-01-15T05:49:08;9.43;;;4.63;;
84766;SDS011;74995;49.824;10.994;2024-01-15T05:51:33;9.57;;;4.53;;
84766;SDS011;74995;49.824;10.994;2024-01-15T05:53:59;9.30;;;4.35;;
84766;SDS011;74995;49.824;10.994;2024-01-15T05:56:24;10.88;;;4.18;;
84766;SDS011;74995;49.824;10.994;2024-01-15T05:58:50;6.97;;;4.00;;
84766;SDS011;74995;49.824;10.994;2024-01-15T06:01:15;8.45;;;4.30;;
84766;SDS011;74995;49.824;10.994;2024-01-15T06:03:40;9.73;;;3.83;;
84766;SDS011;74995;49.824;10.994;2024-01-15T06:06:06;6.25;;;3.22;;
84766;SDS011;74995;49.824;10.994;2024-01-15T06:08:33;7.40;;;3.45;;
84766;SDS011;74995;49.824;10.994;2024-01-15T06:10:58;8.13;;;4.30;;
84766;SDS011;74995;49.824;10.994;2024-01-15T06:13:23;7.90;;;3.75;;
84766;SDS011;74995;49.824;10.994;2024-01-15T06:15:49;7.80;;;3.42;;
84766;SDS011;74995;49.824;10.994;2024-01-15T06:18:14;7.35;;;4.05;;
84766;SDS011;74995;49.824;10.994;2024-01-15T06:20:39;9.27;;;4.13;;
84766;SDS011;74995;49.824;10.994;2024-01-15T06:23:05;9.40;;;3.97;;
84766;SDS011;74995;49.824;10.994;2024-01-15T06:25:30;9.55;;;4.82;;
84766;SDS011;74995;49.824;10.994;2024-01-15T06:27:55;7.50;;;3.75;;
84766;SDS011;74995;49.824;10.994;2024-01-15T06:30:21;8.38;;;3.92;;
84766;SDS011;74995;49.824;10.994;2024-01-15T06:32:46;9.98;;;5.15;;
84766;SDS011;74995;49.824;10.994;2024-01-15T06:35:11;8.77;;;4.53;;
84766;SDS011;74995;49.824;10.994;2024-01-15T06:37:37;10.07;;;4.53;;
84766;SDS011;74995;49.824;10.994;2024-01-15T06:40:02;9.25;;;3.72;;
84766;SDS011;74995;49.824;10.994;2024-01-15T06:42:28;6.07;;;3.60;;
84766;SDS011;74995;49.824;10.994;2024-01-15T06:44:53;7.68;;;3.47;;
84766;SDS011;74995;49.824;10.994;2024-01-15T06:47:19;10.98;;;4.32;;
84766;SDS011;74995;49.824;10.994;2024-01-15T06:49:44;10.20;;;4.55;;
84766;SDS011;74995;49.824;10.994;2024-01-15T06:52:09;7.72;;;3.42;;
84766;SDS011;74995;49.824;10.994;2024-01-15T06:54:36;8.80;;;4.15;;
84766;SDS011;74995;49.824;10.994;2024-01-15T06:57:02;8.73;;;4.05;;
84766;SDS011;74995;49.824;10.994;2024-01-15T06:59:27;8.40;;;3.90;;
84766;SDS011;74995;49.824;10.994;2024-01-15T07:01:52;8.18;;;3.60;;
84766;SDS011;74995;49.824;10.994;2024-01-15T07:04:18;8.43;;;4.00;;
84766;SDS011;74995;49.824;10.994;2024-01-15T07:06:43;8.35;;;3.88;;
84766;SDS011;74995;49.824;10.994;2024-01-15T07:09:08;8.52;;;3.97;;
84766;SDS011;74995;49.824;10.994;2024-01-15T07:11:34;7.03;;;4.03;;
84766;SDS011;74995;49.824;10.994;2024-01-15T07:13:59;8.27;;;3.80;;
84766;SDS011;74995;49.824;10.994;2024-01-15T07:16:24;8.18;;;3.40;;
84766;SDS011;74995;49.824;10.994;2024-01-15T07:18:50;7.22;;;3.67;;
84766;SDS011;74995;49.824;10.994;2024-01-15T07:21:15;9.90;;;4.10;;
84766;SDS011;74995;49.824;10.994;2024-01-15T07:23:40;6.82;;;3.50;;
84766;SDS011;74995;49.824;10.994;2024-01-15T07:26:07;8.02;;;4.45;;
84766;SDS011;74995;49.824;10.994;2024-01-15T07:28:32;8.00;;;3.92;;
84766;SDS011;74995;49.824;10.994;2024-01-15T07:30:58;8.15;;;4.10;;
84766;SDS011;74995;49.824;10.994;2024-01-15T07:33:23;6.32;;;3.15;;
84766;SDS011;74995;49.824;10.994;2024-01-15T07:35:48;6.75;;;3.60;;
84766;SDS011;74995;49.824;10.994;2024-01-15T07:38:14;6.32;;;3.83;;
84766;SDS011;74995;49.824;10.994;2024-01-15T07:40:39;8.98;;;3.80;;
84766;SDS011;74995;49.824;10.994;2024-01-15T07:43:04;7.63;;;3.58;;
84766;SDS011;74995;49.824;10.994;2024-01-15T07:45:30;7.03;;;3.38;;
84766;SDS011;74995;49.824;10.994;2024-01-15T07:47:55;7.82;;;3.88;;
84766;SDS011;74995;49.824;10.994;2024-01-15T07:50:21;8.43;;;4.28;;
84766;SDS011;74995;49.824;10.994;2024-01-15T07:52:46;7.75;;;3.33;;
84766;SDS011;74995;49.824;10.994;2024-01-15T07:55:11;6.72;;;3.90;;
84766;SDS011;74995;49.824;10.994;2024-01-15T07:57:37;8.18;;;3.88;;
84766;SDS011;74995;49.824;10.994;2024-01-15T08:00:03;7.93;;;3.63;;
84766;SDS011;74995;49.824;10.994;2024-01-15T08:02:32;6.43;;;3.28;;
84766;SDS011;74995;49.824;10.994;2024-01-15T08:04:57;6.00;;;3.63;;
84766;SDS011;74995;49.824;10.994;2024-01-15T08:09:49;7.95;;;3.90;;
84766;SDS011;74995;49.824;10.994;2024-01-15T08:12:14;7.82;;;3.25;;
84766;SDS011;74995;49.824;10.994;2024-01-15T08:14:40;7.38;;;3.50;;
84766;SDS011;74995;49.824;10.994;2024-01-15T08:17:05;7.00;;;3.65;;
84766;SDS011;74995;49.824;10.994;2024-01-15T08:19:30;6.90;;;3.42;;
84766;SDS011;74995;49.824;10.994;2024-01-15T08:21:56;6.50;;;3.17;;
84766;SDS011;74995;49.824;10.994;2024-01-15T08:24:21;7.40;;;4.10;;
84766;SDS011;74995;49.824;10.994;2024-01-15T08:26:47;6.70;;;3.30;;
84766;SDS011;74995;49.824;10.994;2024-01-15T08:29:12;8.45;;;3.80;;
84766;SDS011;74995;49.824;10.994;2024-01-15T08:31:37;6.53;;;3.28;;
84766;SDS011;74995;49.824;10.994;2024-01-15T08:34:03;7.32;;;3.50;;
84766;SDS011;74995;49.824;10.994;2024-01-15T08:36:28;7.05;;;3.70;;
84766;SDS011;74995;49.824;10.994;2024-01-15T08:38:56;5.88;;;3.17;;
84766;SDS011;74995;49.824;10.994;2024-01-15T08:41:22;7.88;;;3.83;;
84766;SDS011;74995;49.824;10.994;2024-01-15T08:43:47;6.28;;;3.17;;
84766;SDS011;74995;49.824;10.994;2024-01-15T08:46:13;7.07;;;4.13;;
84766;SDS011;74995;49.824;10.994;2024-01-15T08:48:38;9.48;;;4.35;;
84766;SDS011;74995;49.824;10.994;2024-01-15T08:53:29;9.73;;;4.00;;
84766;SDS011;74995;49.824;10.994;2024-01-15T08:55:55;7.80;;;3.55;;
84766;SDS011;74995;49.824;10.994;2024-01-15T08:58:20;6.75;;;3.40;;
84766;SDS011;74995;49.824;10.994;2024-01-15T09:00:45;6.25;;;3.35;;
84766;SDS011;74995;49.824;10.994;2024-01-15T09:03:11;8.07;;;3.40;;
84766;SDS011;74995;49.824;10.994;2024-01-15T09:05:36;7.78;;;3.95;;
84766;SDS011;74995;49.824;10.994;2024-01-15T09:08:02;6.97;;;3.75;;
84766;SDS011;74995;49.824;10.994;2024-01-15T09:10:28;6.47;;;3.47;;
84766;SDS011;74995;49.824;10.994;2024-01-15T09:12:53;8.35;;;4.35;;
84766;SDS011;74995;49.824;10.994;2024-01-15T09:15:18;5.95;;;3.03;;
84766;SDS011;74995;49.824;10.994;2024-01-15T09:20:11;6.22;;;3.22;;
84766;SDS011;74995;49.824;10.994;2024-01-15T09:22:39;7.18;;;3.90;;
84766;SDS011;74995;49.824;10.994;2024-01-15T09:25:08;5.53;;;3.10;;
84766;SDS011;74995;49.824;10.994;2024-01-15T09:27:37;6.75;;;3.40;;
84766;SDS011;74995;49.824;10.994;2024-01-15T09:30:03;8.45;;;3.85;;
84766;SDS011;74995;49.824;10.994;2024-01-15T09:32:29;8.90;;;4.60;;
84766;SDS011;74995;49.824;10.994;2024-01-15T09:34:55;6.75;;;3.63;;
84766;SDS011;74995;49.824;10.994;2024-01-15T09:37:20;8.57;;;4.28;;
84766;SDS011;74995;49.824;10.994;2024-01-15T09:39:45;8.55;;;3.88;;
84766;SDS011;74995;49.824;10.994;2024-01-15T09:42:13;6.65;;;3.58;;
84766;SDS011;74995;49.824;10.994;2024-01-15T09:44:39;8.20;;;3.78;;
84766;SDS011;74995;49.824;10.994;2024-01-15T09:47:04;8.43;;;3.70;;
84766;SDS011;74995;49.824;10.994;2024-01-15T09:49:30;6.57;;;3.55;;
84766;SDS011;74995;49.824;10.994;2024-01-15T09:51:56;6.13;;;3.25;;
84766;SDS011;74995;49.824;10.994;2024-01-15T09:54:23;6.60;;;3.83;;
84766;SDS011;74995;49.824;10.994;2024-01-15T09:56:48;6.97;;;3.78;;
84766;SDS011;74995;49.824;10.994;2024-01-15T09:59:15;5.60;;;3.17;;
84766;SDS011;74995;49.824;10.994;2024-01-15T10:01:41;5.90;;;3.13;;
84766;SDS011;74995;49.824;10.994;2024-01-15T10:04:09;6.13;;;3.58;;
84766;SDS011;74995;49.824;10.994;2024-01-15T10:06:35;8.57;;;4.20;;
84766;SDS011;74995;49.824;10.994;2024-01-15T10:09:01;7.25;;;3.53;;
84766;SDS011;74995;49.824;10.994;2024-01-15T10:11:28;6.95;;;3.42;;
84766;SDS011;74995;49.824;10.994;2024-01-15T10:13:53;6.32;;;3.22;;
84766;SDS011;74995;49.824;10.994;2024-01-15T10:16:22;6.78;;;3.88;;
84766;SDS011;74995;49.824;10.994;2024-01-15T10:18:48;6.47;;;3.70;;
84766;SDS011;74995;49.824;10.994;2024-01-15T10:21:14;7.68;;;3.97;;
84766;SDS011;74995;49.824;10.994;2024-01-15T10:23:40;6.80;;;3.60;;
84766;SDS011;74995;49.824;10.994;2024-01-15T10:26:06;6.90;;;3.70;;
84766;SDS011;74995;49.824;10.994;2024-01-15T10:28:32;6.80;;;3.03;;
84766;SDS011;74995;49.824;10.994;2024-01-15T10:30:58;8.10;;;3.60;;
84766;SDS011;74995;49.824;10.994;2024-01-15T10:33:24;6.22;;;3.00;;
84766;SDS011;74995;49.824;10.994;2024-01-15T10:35:53;7.97;;;3.28;;
84766;SDS011;74995;49.824;10.994;2024-01-15T10:38:23;6.13;;;3.13;;
84766;SDS011;74995;49.824;10.994;2024-01-15T10:40:53;5.80;;;3.33;;
84766;SDS011;74995;49.824;10.994;2024-01-15T10:43:20;6.75;;;3.80;;
84766;SDS011;74995;49.824;10.994;2024-01-15T10:45:50;6.93;;;3.92;;
84766;SDS011;74995;49.824;10.994;2024-01-15T10:48:16;5.93;;;2.83;;
84766;SDS011;74995;49.824;10.994;2024-01-15T10:50:43;8.20;;;4.20;;
84766;SDS011;74995;49.824;10.994;2024-01-15T10:53:10;6.32;;;3.40;;
84766;SDS011;74995;49.824;10.994;2024-01-15T10:55:37;8.57;;;3.67;;
84766;SDS011;74995;49.824;10.994;2024-01-15T10:58:04;7.00;;;3.67;;
84766;SDS011;74995;49.824;10.994;2024-01-15T11:00:32;5.80;;;3.20;;
84766;SDS011;74995;49.824;10.994;2024-01-15T11:02:59;6.88;;;3.80;;
84766;SDS011;74995;49.824;10.994;2024-01-15T11:05:26;7.13;;;3.55;;
84766;SDS011;74995;49.824;10.994;2024-01-15T11:07:54;6.75;;;3.75;;
84766;SDS011;74995;49.824;10.994;2024-01-15T11:13:10;4.85;;;2.85;;
84766;SDS011;74995;49.824;10.994;2024-01-15T11:15:57;5.80;;;3.08;;
84766;SDS011;74995;49.824;10.994;2024-01-15T11:18:23;7.07;;;3.28;;
84766;SDS011;74995;49.824;10.994;2024-01-15T11:23:45;7.57;;;3.60;;
84766;SDS011;74995;49.824;10.994;2024-01-15T11:29:05;6.22;;;3.25;;
84766;SDS011;74995;49.824;10.994;2024-01-15T11:32:14;6.35;;;3.20;;
84766;SDS011;74995;49.824;10.994;2024-01-15T11:34:20;7.35;;;3.85;;
84766;SDS011;74995;49.824;10.994;2024-01-15T11:39:39;7.00;;;3.55;;
84766;SDS011;74995;49.824;10.994;2024-01-15T11:42:05;6.68;;;3.33;;
84766;SDS011;74995;49.824;10.994;2024-01-15T11:44:30;6.50;;;3.63;;
84766;SDS011;74995;49.824;10.994;2024-01-15T11:47:02;6.25;;;3.25;;
84766;SDS011;74995;49.824;10.994;2024-01-15T11:49:36;6.25;;;2.80;;
84766;SDS011;74995;49.824;10.994;2024-01-15T11:52:34;5.72;;;3.17;;
84766;SDS011;74995;49.824;10.994;2024-01-15T12:00:19;6.43;;;3.60;;
84766;SDS011;74995;49.824;10.994;2024-01-15T12:02:46;5.88;;;3.05;;
84766;SDS011;74995;49.824;10.994;2024-01-15T12:05:13;6.75;;;3.17;;
84766;SDS011;74995;49.824;10.994;2024-01-15T12:07:40;5.15;;;3.38;;
84766;SDS011;74995;49.824;10.994;2024-01-15T12:12:45;5.10;;;3.10;;
84766;SDS011;74995;49.824;10.994;2024-01-15T12:15:18;7.53;;;3.42;;
84766;SDS011;74995;49.824;10.994;2024-01-15T12:17:44;5.28;;;2.67;;
84766;SDS011;74995;49.824;10.994;2024-01-15T12:20:10;7.70;;;3.35;;
84766;SDS011;74995;49.824;10.994;2024-01-15T12:22:36;5.82;;;3.58;;
84766;SDS011;74995;49.824;10.994;2024-01-15T12:25:01;6.30;;;3.22;;
84766;SDS011;74995;49.824;10.994;2024-01-15T12:27:27;5.28;;;3.20;;
84766;SDS011;74995;49.824;10.994;2024-01-15T12:29:52;5.88;;;3.33;;
84766;SDS011;74995;49.824;10.994;2024-01-15T12:32:18;5.68;;;2.97;;
84766;SDS011;74995;49.824;10.994;2024-01-15T12:34:44;6.45;;;3.42;;
84766;SDS011;74995;49.824;10.994;2024-01-15T12:37:09;6.30;;;3.72;;
84766;SDS011;74995;49.824;10.994;2024-01-15T12:39:35;6.05;;;3.42;;
84766;SDS011;74995;49.824;10.994;2024-01-15T12:42:01;6.78;;;3.28;;
84766;SDS011;74995;49.824;10.994;2024-01-15T12:44:28;5.30;;;3.20;;
84766;SDS011;74995;49.824;10.994;2024-01-15T12:46:53;6.07;;;3.38;;
84766;SDS011;74995;49.824;10.994;2024-01-15T12:49:18;4.88;;;3.08;;
84766;SDS011;74995;49.824;10.994;2024-01-15T12:51:51;4.82;;;2.72;;
84766;SDS011;74995;49.824;10.994;2024-01-15T12:54:17;5.80;;;3.17;;
84766;SDS011;74995;49.824;10.994;2024-01-15T12:56:42;6.75;;;3.15;;
84766;SDS011;74995;49.824;10.994;2024-01-15T12:59:08;6.15;;;3.15;;
84766;SDS011;74995;49.824;10.994;2024-01-15T13:01:33;5.65;;;3.28;;
84766;SDS011;74995;49.824;10.994;2024-01-15T13:04:00;6.35;;;3.22;;
84766;SDS011;74995;49.824;10.994;2024-01-15T13:06:26;6.07;;;3.70;;
84766;SDS011;74995;49.824;10.994;2024-01-15T13:08:51;5.63;;;3.45;;
84766;SDS011;74995;49.824;10.994;2024-01-15T13:11:16;5.72;;;3.35;;
84766;SDS011;74995;49.824;10.994;2024-01-15T13:13:42;6.65;;;3.35;;
84766;SDS011;74995;49.824;10.994;2024-01-15T13:16:08;5.68;;;3.10;;
84766;SDS011;74995;49.824;10.994;2024-01-15T13:18:34;5.20;;;2.80;;
84766;SDS011;74995;49.824;10.994;2024-01-15T13:20:59;4.80;;;2.70;;
84766;SDS011;74995;49.824;10.994;2024-01-15T13:23:25;5.25;;;2.90;;
84766;SDS011;74995;49.824;10.994;2024-01-15T13:25:50;6.13;;;3.15;;
84766;SDS011;74995;49.824;10.994;2024-01-15T13:28:16;6.20;;;3.00;;
84766;SDS011;74995;49.824;10.994;2024-01-15T13:30:41;5.00;;;3.05;;
84766;SDS011;74995;49.824;10.994;2024-01-15T13:33:07;4.10;;;2.75;;
84766;SDS011;74995;49.824;10.994;2024-01-15T13:38:00;5.00;;;3.35;;
84766;SDS011;74995;49.824;10.994;2024-01-15T13:40:26;5.15;;;3.15;;
84766;SDS011;74995;49.824;10.994;2024-01-15T13:42:51;5.85;;;3.28;;
84766;SDS011;74995;49.824;10.994;2024-01-15T13:45:17;5.93;;;3.50;;
84766;SDS011;74995;49.824;10.994;2024-01-15T13:47:43;5.28;;;3.20;;
84766;SDS011;74995;49.824;10.994;2024-01-15T13:50:08;5.45;;;2.67;;
84766;SDS011;74995;49.824;10.994;2024-01-15T13:52:34;6.18;;;3.42;;
84766;SDS011;74995;49.824;10.994;2024-01-15T13:54:59;5.55;;;2.90;;
84766;SDS011;74995;49.824;10.994;2024-01-15T13:57:25;4.32;;;2.55;;
84766;SDS011;74995;49.824;10.994;2024-01-15T13:59:50;5.97;;;2.88;;
84766;SDS011;74995;49.824;10.994;2024-01-15T14:02:15;5.63;;;2.78;;
84766;SDS011;74995;49.824;10.994;2024-01-15T14:04:41;4.60;;;2.65;;
84766;SDS011;74995;49.824;10.994;2024-01-15T14:07:06;4.53;;;2.90;;
84766;SDS011;74995;49.824;10.994;2024-01-15T14:09:32;4.85;;;2.75;;
84766;SDS011;74995;49.824;10.994;2024-01-15T14:11:57;5.55;;;2.85;;
84766;SDS011;74995;49.824;10.994;2024-01-15T14:14:22;6.35;;;3.75;;
84766;SDS011;74995;49.824;10.994;2024-01-15T14:16:49;5.13;;;2.78;;
84766;SDS011;74995;49.824;10.994;2024-01-15T14:19:15;4.80;;;2.53;;
84766;SDS011;74995;49.824;10.994;2024-01-15T14:21:40;5.15;;;2.72;;
84766;SDS011;74995;49.824;10.994;2024-01-15T14:24:06;5.05;;;2.70;;
84766;SDS011;74995;49.824;10.994;2024-01-15T14:26:31;6.43;;;2.60;;
84766;SDS011;74995;49.824;10.994;2024-01-15T14:28:56;5.68;;;3.15;;
84766;SDS011;74995;49.824;10.994;2024-01-15T14:31:23;4.32;;;2.63;;
84766;SDS011;74995;49.824;10.994;2024-01-15T14:33:51;4.80;;;2.75;;
84766;SDS011;74995;49.824;10.994;2024-01-15T14:36:16;4.95;;;2.53;;
84766;SDS011;74995;49.824;10.994;2024-01-15T14:38:42;5.47;;;2.95;;
84766;SDS011;74995;49.824;10.994;2024-01-15T14:41:07;4.85;;;2.92;;
84766;SDS011;74995;49.824;10.994;2024-01-15T14:43:32;3.78;;;2.47;;
84766;SDS011;74995;49.824;10.994;2024-01-15T14:45:58;6.90;;;3.08;;
84766;SDS011;74995;49.824;10.994;2024-01-15T14:48:23;4.28;;;2.45;;
84766;SDS011;74995;49.824;10.994;2024-01-15T14:50:48;5.40;;;2.78;;
84766;SDS011;74995;49.824;10.994;2024-01-15T14:53:15;4.78;;;2.90;;